DAL500 KLAX-KATL
Flight info
| Callsign | DAL500 |
|---|---|
| Flight time | N/A |
| Altitude | 39000 |
| Route | DOTSS2 CLEEE PKE HIDAT KA27O NABOB J74 SJN J231 ACH/N0484F410 TCC J78 IRW J14 LIT J66 BEATS RUSSA GLAVN2 |
| Aircraft | A359/H-SDE2E3GHIJ3J4J5LM1ORWXY/LB1D1 |
Departure
| Time | 2026-04-21 19:22 |
|---|---|
| Airport | Los Angeles International Airport (KLAX) |
Arrival
| Time | N/A |
|---|---|
| Airport | Hartsfield Jackson Atlanta International Airport (KATL) |
| Time | Latitude | Longitude | Altitude | Speed | Heading |
|---|---|---|---|---|---|
| 2026-04-21 18:49 | 33.94692 | -118.40827 | 99 ft | 0 kts | 136° |
| 2026-04-21 19:09 | 33.94703 | -118.40841 | 102 ft | 2 kts | 137° |
| 2026-04-21 19:09 | 33.94715 | -118.40854 | 99 ft | 2 kts | 138° |
| 2026-04-21 19:10 | 33.94728 | -118.40867 | 98 ft | 2 kts | 134° |
| 2026-04-21 19:10 | 33.94738 | -118.40882 | 98 ft | 2 kts | 127° |
| 2026-04-21 19:10 | 33.94747 | -118.40899 | 98 ft | 2 kts | 108° |
| 2026-04-21 19:10 | 33.94748 | -118.40918 | 99 ft | 2 kts | 82° |
| 2026-04-21 19:11 | 33.94746 | -118.40935 | 97 ft | 1 kts | 83° |
| 2026-04-21 19:11 | 33.94746 | -118.40936 | 97 ft | 0 kts | 83° |
| 2026-04-21 19:17 | 33.94752 | -118.40873 | 99 ft | 12 kts | 83° |
| 2026-04-21 19:17 | 33.94762 | -118.40761 | 102 ft | 15 kts | 83° |
| 2026-04-21 19:18 | 33.94775 | -118.40630 | 101 ft | 16 kts | 83° |
| 2026-04-21 19:18 | 33.94789 | -118.40488 | 103 ft | 18 kts | 83° |
| 2026-04-21 19:18 | 33.94805 | -118.40335 | 103 ft | 18 kts | 83° |
| 2026-04-21 19:18 | 33.94826 | -118.40206 | 101 ft | 14 kts | 78° |
| 2026-04-21 19:19 | 33.94852 | -118.40095 | 99 ft | 14 kts | 49° |
| 2026-04-21 19:19 | 33.94922 | -118.40040 | 102 ft | 11 kts | 71° |
| 2026-04-21 19:19 | 33.94941 | -118.39946 | 100 ft | 12 kts | 58° |
| 2026-04-21 19:19 | 33.95017 | -118.39918 | 103 ft | 11 kts | 337° |
| 2026-04-21 19:20 | 33.95038 | -118.39997 | 103 ft | 10 kts | 263° |
| 2026-04-21 19:20 | 33.95035 | -118.40016 | 101 ft | 0 kts | 262° |
| 2026-04-21 19:21 | 33.95035 | -118.40017 | 101 ft | 1 kts | 262° |
| 2026-04-21 19:21 | 33.95012 | -118.40232 | 106 ft | 60 kts | 263° |
| 2026-04-21 19:21 | 33.94932 | -118.41005 | 104 ft | 124 kts | 263° |
| 2026-04-21 19:22 | 33.94805 | -118.42248 | 244 ft | 164 kts | 263° |
| 2026-04-21 19:22 | 33.94674 | -118.43570 | 1053 ft | 155 kts | 261° |
| 2026-04-21 19:22 | 33.94547 | -118.44899 | 1550 ft | 166 kts | 259° |
| 2026-04-21 19:22 | 33.94397 | -118.46357 | 1801 ft | 185 kts | 257° |
| 2026-04-21 19:23 | 33.94269 | -118.47991 | 2031 ft | 207 kts | 263° |
| 2026-04-21 19:23 | 33.94214 | -118.49822 | 2234 ft | 230 kts | 265° |
| 2026-04-21 19:23 | 33.94160 | -118.51804 | 2537 ft | 248 kts | 263° |
| 2026-04-21 19:23 | 33.94016 | -118.53880 | 3147 ft | 251 kts | 261° |
| 2026-04-21 19:24 | 33.93842 | -118.55985 | 3822 ft | 253 kts | 261° |
| 2026-04-21 19:24 | 33.93672 | -118.58080 | 4602 ft | 250 kts | 262° |
| 2026-04-21 19:24 | 33.93466 | -118.60124 | 5449 ft | 243 kts | 257° |
| 2026-04-21 19:24 | 33.92858 | -118.62002 | 6097 ft | 243 kts | 237° |
| 2026-04-21 19:25 | 33.91652 | -118.63425 | 6737 ft | 247 kts | 214° |
| 2026-04-21 19:25 | 33.90019 | -118.64122 | 7331 ft | 256 kts | 191° |
| 2026-04-21 19:25 | 33.88220 | -118.64135 | 7935 ft | 261 kts | 181° |
| 2026-04-21 19:25 | 33.86405 | -118.63977 | 8578 ft | 263 kts | 180° |
| 2026-04-21 19:26 | 33.84577 | -118.63691 | 9201 ft | 269 kts | 171° |
| 2026-04-21 19:26 | 33.82835 | -118.62790 | 9896 ft | 277 kts | 154° |
| 2026-04-21 19:26 | 33.81198 | -118.61505 | 10356 ft | 288 kts | 152° |
| 2026-04-21 19:26 | 33.79506 | -118.60108 | 10620 ft | 302 kts | 152° |
| 2026-04-21 19:27 | 33.77730 | -118.58642 | 10872 ft | 317 kts | 152° |
| 2026-04-21 19:27 | 33.75873 | -118.57121 | 11115 ft | 330 kts | 152° |
| 2026-04-21 19:27 | 33.73938 | -118.55542 | 11330 ft | 342 kts | 152° |
| 2026-04-21 19:27 | 33.71942 | -118.53897 | 11541 ft | 355 kts | 150° |
| 2026-04-21 19:28 | 33.70096 | -118.51827 | 11841 ft | 373 kts | 135° |
| 2026-04-21 19:28 | 33.68786 | -118.49065 | 12260 ft | 389 kts | 118° |
| 2026-04-21 19:28 | 33.67841 | -118.45990 | 12657 ft | 396 kts | 115° |
| 2026-04-21 19:28 | 33.66937 | -118.42853 | 13030 ft | 400 kts | 115° |
| 2026-04-21 19:29 | 33.66017 | -118.39680 | 13398 ft | 404 kts | 115° |
| 2026-04-21 19:29 | 33.65116 | -118.36585 | 13609 ft | 405 kts | 115° |
| 2026-04-21 19:29 | 33.64494 | -118.33271 | 13599 ft | 411 kts | 100° |
| 2026-04-21 19:29 | 33.64411 | -118.29807 | 13868 ft | 419 kts | 95° |
| 2026-04-21 19:30 | 33.64428 | -118.26323 | 14224 ft | 422 kts | 94° |
| 2026-04-21 19:30 | 33.64445 | -118.22766 | 14623 ft | 425 kts | 95° |
| 2026-04-21 19:30 | 33.64455 | -118.19207 | 15060 ft | 427 kts | 95° |
| 2026-04-21 19:30 | 33.64460 | -118.15634 | 15448 ft | 429 kts | 95° |
| 2026-04-21 19:31 | 33.64462 | -118.13259 | 15702 ft | 431 kts | 95° |
| 2026-04-21 19:31 | 33.64462 | -118.09651 | 16077 ft | 434 kts | 95° |
| 2026-04-21 19:31 | 33.64460 | -118.06023 | 16434 ft | 436 kts | 95° |
| 2026-04-21 19:31 | 33.64458 | -118.02389 | 16888 ft | 436 kts | 95° |
| 2026-04-21 19:32 | 33.64453 | -117.98744 | 17242 ft | 439 kts | 95° |
| 2026-04-21 19:32 | 33.64447 | -117.95068 | 17600 ft | 441 kts | 95° |
| 2026-04-21 19:32 | 33.64439 | -117.91372 | 17949 ft | 445 kts | 95° |
| 2026-04-21 19:32 | 33.64430 | -117.87648 | 18366 ft | 448 kts | 95° |
| 2026-04-21 19:33 | 33.64421 | -117.83900 | 18666 ft | 450 kts | 95° |
| 2026-04-21 19:33 | 33.64488 | -117.80126 | 18974 ft | 456 kts | 90° |
| 2026-04-21 19:33 | 33.65000 | -117.76343 | 19275 ft | 462 kts | 81° |
| 2026-04-21 19:33 | 33.65717 | -117.72574 | 19562 ft | 465 kts | 80° |
| 2026-04-21 19:34 | 33.66461 | -117.68790 | 19854 ft | 467 kts | 80° |
| 2026-04-21 19:34 | 33.67205 | -117.64980 | 20132 ft | 470 kts | 80° |
| 2026-04-21 19:34 | 33.67948 | -117.61147 | 20430 ft | 472 kts | 80° |
| 2026-04-21 19:34 | 33.68688 | -117.57299 | 20694 ft | 475 kts | 80° |
| 2026-04-21 19:35 | 33.69431 | -117.53435 | 20989 ft | 477 kts | 81° |
| 2026-04-21 19:35 | 33.70921 | -117.45634 | 21593 ft | 481 kts | 81° |
| 2026-04-21 19:35 | 33.71667 | -117.41719 | 21908 ft | 482 kts | 81° |
| 2026-04-21 19:36 | 33.72413 | -117.37793 | 22219 ft | 483 kts | 81° |
| 2026-04-21 19:36 | 33.73161 | -117.33845 | 22474 ft | 486 kts | 81° |
| 2026-04-21 19:36 | 33.73911 | -117.29882 | 22725 ft | 488 kts | 81° |
| 2026-04-21 19:36 | 33.74652 | -117.25896 | 22966 ft | 489 kts | 82° |
| 2026-04-21 19:37 | 33.75068 | -117.21856 | 23240 ft | 485 kts | 93° |
| 2026-04-21 19:37 | 33.75065 | -117.17817 | 23489 ft | 484 kts | 96° |
| 2026-04-21 19:37 | 33.74978 | -117.13820 | 23805 ft | 484 kts | 97° |
| 2026-04-21 19:37 | 33.74883 | -117.09720 | 24052 ft | 486 kts | 97° |
| 2026-04-21 19:38 | 33.74792 | -117.05705 | 24248 ft | 488 kts | 96° |
| 2026-04-21 19:38 | 33.74701 | -117.01615 | 24440 ft | 491 kts | 96° |
| 2026-04-21 19:38 | 33.74611 | -116.97513 | 24654 ft | 492 kts | 96° |
| 2026-04-21 19:38 | 33.74523 | -116.93338 | 24866 ft | 494 kts | 96° |
| 2026-04-21 19:39 | 33.74432 | -116.89262 | 25062 ft | 496 kts | 97° |
| 2026-04-21 19:39 | 33.74337 | -116.85115 | 25259 ft | 497 kts | 96° |
| 2026-04-21 19:39 | 33.74242 | -116.80954 | 25499 ft | 499 kts | 96° |
| 2026-04-21 19:39 | 33.74145 | -116.76785 | 25696 ft | 501 kts | 96° |
| 2026-04-21 19:40 | 33.74047 | -116.72592 | 25904 ft | 503 kts | 96° |
| 2026-04-21 19:40 | 33.73947 | -116.68382 | 26105 ft | 505 kts | 96° |
| 2026-04-21 19:40 | 33.73844 | -116.64157 | 26315 ft | 507 kts | 97° |
| 2026-04-21 19:40 | 33.73739 | -116.59904 | 26358 ft | 512 kts | 97° |
| 2026-04-21 19:41 | 33.73634 | -116.55639 | 26618 ft | 509 kts | 96° |
| 2026-04-21 19:41 | 33.73530 | -116.51404 | 26982 ft | 507 kts | 96° |
| 2026-04-21 19:41 | 33.73423 | -116.47152 | 27130 ft | 511 kts | 96° |
| 2026-04-21 19:41 | 33.73312 | -116.42878 | 27294 ft | 513 kts | 96° |
| 2026-04-21 19:42 | 33.73198 | -116.38585 | 27478 ft | 515 kts | 96° |
| 2026-04-21 19:42 | 33.73084 | -116.34275 | 27692 ft | 517 kts | 96° |
| 2026-04-21 19:42 | 33.72968 | -116.29950 | 27924 ft | 520 kts | 96° |
| 2026-04-21 19:42 | 33.72851 | -116.25604 | 28124 ft | 522 kts | 96° |
| 2026-04-21 19:43 | 33.72730 | -116.21242 | 28411 ft | 523 kts | 96° |
| 2026-04-21 19:43 | 33.72609 | -116.16871 | 28641 ft | 525 kts | 96° |
| 2026-04-21 19:43 | 33.72489 | -116.12479 | 28871 ft | 528 kts | 96° |
| 2026-04-21 19:43 | 33.72624 | -116.08047 | 29075 ft | 535 kts | 86° |
| 2026-04-21 19:44 | 33.73371 | -116.03644 | 29334 ft | 541 kts | 76° |
| 2026-04-21 19:44 | 33.74455 | -115.99297 | 29561 ft | 544 kts | 74° |
| 2026-04-21 19:44 | 33.75644 | -115.94967 | 29781 ft | 547 kts | 73° |
| 2026-04-21 19:44 | 33.76878 | -115.90644 | 30097 ft | 547 kts | 72° |
| 2026-04-21 19:45 | 33.78121 | -115.86318 | 30322 ft | 549 kts | 72° |
| 2026-04-21 19:45 | 33.79360 | -115.81966 | 30507 ft | 551 kts | 72° |
| 2026-04-21 19:45 | 33.80591 | -115.77592 | 30703 ft | 553 kts | 73° |
| 2026-04-21 19:45 | 33.81815 | -115.73196 | 30916 ft | 555 kts | 73° |
| 2026-04-21 19:46 | 33.83033 | -115.68787 | 31118 ft | 557 kts | 73° |
| 2026-04-21 19:46 | 33.84249 | -115.64363 | 31351 ft | 559 kts | 73° |
| 2026-04-21 19:46 | 33.85468 | -115.59914 | 31598 ft | 559 kts | 72° |
| 2026-04-21 19:46 | 33.86684 | -115.55472 | 31794 ft | 560 kts | 72° |
| 2026-04-21 19:47 | 33.87904 | -115.51011 | 31872 ft | 561 kts | 72° |
| 2026-04-21 19:47 | 33.90347 | -115.42059 | 32108 ft | 564 kts | 72° |
| 2026-04-21 19:47 | 33.91572 | -115.37563 | 32304 ft | 566 kts | 72° |
| 2026-04-21 19:48 | 33.92779 | -115.33123 | 32597 ft | 565 kts | 72° |
| 2026-04-21 19:48 | 33.94012 | -115.28575 | 32974 ft | 562 kts | 72° |
| 2026-04-21 19:48 | 33.95207 | -115.24164 | 33302 ft | 561 kts | 72° |
| 2026-04-21 19:48 | 33.96416 | -115.19694 | 33544 ft | 562 kts | 72° |
| 2026-04-21 19:49 | 33.97626 | -115.15217 | 33809 ft | 563 kts | 71° |
| 2026-04-21 19:49 | 33.98836 | -115.10732 | 34060 ft | 563 kts | 71° |
| 2026-04-21 19:49 | 34.00040 | -115.06250 | 34354 ft | 561 kts | 72° |
| 2026-04-21 19:49 | 34.01237 | -115.01791 | 34685 ft | 558 kts | 72° |
| 2026-04-21 19:50 | 34.02042 | -114.98791 | 34955 ft | 555 kts | 72° |
| 2026-04-21 19:50 | 34.03602 | -114.92976 | 35595 ft | 547 kts | 72° |
| 2026-04-21 19:50 | 34.04767 | -114.88624 | 35989 ft | 544 kts | 72° |
| 2026-04-21 19:50 | 34.05927 | -114.84285 | 36247 ft | 544 kts | 72° |
| 2026-04-21 19:51 | 34.07085 | -114.79946 | 36527 ft | 543 kts | 72° |
| 2026-04-21 19:51 | 34.08241 | -114.75605 | 36835 ft | 542 kts | 72° |
| 2026-04-21 19:51 | 34.09390 | -114.71286 | 37157 ft | 540 kts | 72° |
| 2026-04-21 19:51 | 34.10533 | -114.66982 | 37473 ft | 538 kts | 72° |
| 2026-04-21 19:52 | 34.11703 | -114.62701 | 37767 ft | 536 kts | 71° |
| 2026-04-21 19:52 | 34.12898 | -114.58446 | 38074 ft | 534 kts | 71° |
| 2026-04-21 19:52 | 34.14099 | -114.54210 | 38361 ft | 533 kts | 71° |
| 2026-04-21 19:52 | 34.15297 | -114.49983 | 38626 ft | 531 kts | 71° |
| 2026-04-21 19:53 | 34.16486 | -114.45766 | 38812 ft | 531 kts | 71° |
| 2026-04-21 19:53 | 34.18857 | -114.37294 | 38910 ft | 533 kts | 71° |
| 2026-04-21 19:54 | 34.21207 | -114.28839 | 38917 ft | 530 kts | 71° |
| 2026-04-21 19:54 | 34.23544 | -114.20399 | 38923 ft | 529 kts | 72° |
| 2026-04-21 19:55 | 34.25874 | -114.11960 | 38921 ft | 529 kts | 72° |
| 2026-04-21 19:55 | 34.28181 | -114.03576 | 38922 ft | 529 kts | 72° |
| 2026-04-21 19:56 | 34.30494 | -113.95146 | 38929 ft | 528 kts | 72° |
| 2026-04-21 19:56 | 34.32817 | -113.86662 | 38934 ft | 528 kts | 72° |
| 2026-04-21 19:57 | 34.35103 | -113.78282 | 38929 ft | 528 kts | 72° |
| 2026-04-21 19:57 | 34.37399 | -113.69841 | 38929 ft | 527 kts | 72° |
| 2026-04-21 19:58 | 34.39683 | -113.61416 | 38936 ft | 526 kts | 72° |
| 2026-04-21 19:58 | 34.41961 | -113.52992 | 38936 ft | 526 kts | 72° |
| 2026-04-21 19:59 | 34.44232 | -113.44563 | 38941 ft | 526 kts | 72° |
| 2026-04-21 19:59 | 34.46499 | -113.36128 | 38947 ft | 527 kts | 71° |
| 2026-04-21 20:00 | 34.48760 | -113.27684 | 38948 ft | 527 kts | 71° |
| 2026-04-21 20:00 | 34.51016 | -113.19233 | 38958 ft | 527 kts | 71° |
| 2026-04-21 20:01 | 34.53268 | -113.10772 | 38956 ft | 527 kts | 71° |
| 2026-04-21 20:01 | 34.55480 | -113.02296 | 38964 ft | 528 kts | 75° |
| 2026-04-21 20:02 | 34.56314 | -112.93483 | 38975 ft | 527 kts | 93° |
| 2026-04-21 20:02 | 34.55904 | -112.84616 | 38976 ft | 527 kts | 96° |
| 2026-04-21 20:03 | 34.55289 | -112.75819 | 38977 ft | 527 kts | 96° |
| 2026-04-21 20:03 | 34.54660 | -112.66972 | 38984 ft | 526 kts | 95° |
| 2026-04-21 20:04 | 34.54053 | -112.58128 | 38981 ft | 527 kts | 95° |
| 2026-04-21 20:04 | 34.53454 | -112.49274 | 39125 ft | 526 kts | 95° |
| 2026-04-21 20:05 | 34.52869 | -112.40716 | 39131 ft | 525 kts | 95° |
| 2026-04-21 20:05 | 34.52262 | -112.31933 | 39108 ft | 521 kts | 95° |
| 2026-04-21 20:06 | 34.51652 | -112.23184 | 39083 ft | 521 kts | 95° |
| 2026-04-21 20:06 | 34.51035 | -112.14436 | 39048 ft | 521 kts | 95° |
| 2026-04-21 20:07 | 34.50412 | -112.05695 | 39005 ft | 519 kts | 95° |
| 2026-04-21 20:07 | 34.49526 | -111.98525 | 38998 ft | 518 kts | 105° |
| 2026-04-21 20:08 | 34.47260 | -111.88759 | 38993 ft | 518 kts | 107° |
| 2026-04-21 20:08 | 34.45155 | -111.80398 | 38996 ft | 519 kts | 108° |
| 2026-04-21 20:09 | 34.43038 | -111.72040 | 39010 ft | 520 kts | 107° |
| 2026-04-21 20:09 | 34.40928 | -111.63668 | 39014 ft | 520 kts | 107° |
| 2026-04-21 20:10 | 34.38821 | -111.55302 | 39104 ft | 519 kts | 107° |
| 2026-04-21 20:10 | 34.36711 | -111.46942 | 39151 ft | 519 kts | 107° |
| 2026-04-21 20:11 | 34.34594 | -111.38580 | 39188 ft | 519 kts | 107° |
| 2026-04-21 20:11 | 34.33128 | -111.30051 | 39185 ft | 519 kts | 92° |
| 2026-04-21 20:12 | 34.33262 | -111.21342 | 39168 ft | 518 kts | 85° |
| 2026-04-21 20:12 | 34.33636 | -111.14117 | 39137 ft | 518 kts | 85° |
| 2026-04-21 20:13 | 34.34209 | -111.03998 | 39092 ft | 519 kts | 85° |
| 2026-04-21 20:13 | 34.34670 | -110.95284 | 39050 ft | 519 kts | 85° |
| 2026-04-21 20:14 | 34.35106 | -110.86567 | 39036 ft | 519 kts | 85° |
| 2026-04-21 20:14 | 34.35533 | -110.77853 | 39035 ft | 519 kts | 85° |
| 2026-04-21 20:15 | 34.35957 | -110.69145 | 39034 ft | 518 kts | 85° |
| 2026-04-21 20:15 | 34.36370 | -110.60439 | 39020 ft | 518 kts | 85° |
| 2026-04-21 20:16 | 34.36777 | -110.51736 | 39032 ft | 518 kts | 85° |
| 2026-04-21 20:16 | 34.37183 | -110.43028 | 39076 ft | 518 kts | 86° |
| 2026-04-21 20:17 | 34.37580 | -110.34327 | 39126 ft | 518 kts | 86° |
| 2026-04-21 20:17 | 34.37968 | -110.25627 | 39174 ft | 518 kts | 86° |
| 2026-04-21 20:18 | 34.38286 | -110.18393 | 39208 ft | 518 kts | 86° |
| 2026-04-21 20:18 | 34.38728 | -110.08229 | 39214 ft | 517 kts | 87° |
| 2026-04-21 20:19 | 34.39099 | -109.99544 | 39188 ft | 516 kts | 87° |
| 2026-04-21 20:19 | 34.39463 | -109.90867 | 39177 ft | 516 kts | 87° |
| 2026-04-21 20:20 | 34.39821 | -109.82182 | 39132 ft | 516 kts | 87° |
| 2026-04-21 20:20 | 34.40173 | -109.73510 | 39067 ft | 514 kts | 88° |
| 2026-04-21 20:21 | 34.40460 | -109.66325 | 38963 ft | 513 kts | 88° |
| 2026-04-21 20:21 | 34.40799 | -109.57700 | 38967 ft | 513 kts | 88° |
| 2026-04-21 20:22 | 34.41131 | -109.49074 | 38996 ft | 513 kts | 88° |
| 2026-04-21 20:22 | 34.41618 | -109.36182 | 39024 ft | 508 kts | 88° |
| 2026-04-21 20:23 | 34.41932 | -109.27649 | 39023 ft | 507 kts | 88° |
| 2026-04-21 20:23 | 34.42239 | -109.19123 | 39001 ft | 507 kts | 88° |
| 2026-04-21 20:24 | 34.43130 | -109.10661 | 38956 ft | 507 kts | 79° |
| 2026-04-21 20:24 | 34.44595 | -109.02328 | 38941 ft | 505 kts | 78° |
| 2026-04-21 20:25 | 34.46143 | -108.94034 | 38939 ft | 505 kts | 78° |
| 2026-04-21 20:25 | 34.47687 | -108.85734 | 38938 ft | 505 kts | 78° |
| 2026-04-21 20:26 | 34.49212 | -108.77433 | 38935 ft | 505 kts | 78° |
| 2026-04-21 20:26 | 34.50714 | -108.69191 | 38938 ft | 503 kts | 78° |
| 2026-04-21 20:27 | 34.52214 | -108.60919 | 38940 ft | 502 kts | 78° |
| 2026-04-21 20:27 | 34.53709 | -108.52640 | 38935 ft | 502 kts | 78° |
| 2026-04-21 20:28 | 34.55198 | -108.44362 | 38938 ft | 502 kts | 78° |
| 2026-04-21 20:28 | 34.56682 | -108.36084 | 38936 ft | 501 kts | 78° |
| 2026-04-21 20:29 | 34.58155 | -108.27829 | 38935 ft | 500 kts | 79° |
| 2026-04-21 20:29 | 34.59622 | -108.19573 | 38936 ft | 500 kts | 79° |
| 2026-04-21 20:30 | 34.61083 | -108.11316 | 38941 ft | 501 kts | 79° |
| 2026-04-21 20:30 | 34.62541 | -108.03047 | 38941 ft | 501 kts | 79° |
| 2026-04-21 20:31 | 34.63992 | -107.94776 | 38951 ft | 501 kts | 79° |
| 2026-04-21 20:31 | 34.65438 | -107.86502 | 38954 ft | 501 kts | 79° |
| 2026-04-21 20:32 | 34.66879 | -107.78224 | 38954 ft | 501 kts | 79° |
| 2026-04-21 20:32 | 34.68313 | -107.69950 | 38955 ft | 499 kts | 79° |
| 2026-04-21 20:33 | 34.69736 | -107.61708 | 38955 ft | 498 kts | 79° |
| 2026-04-21 20:33 | 34.71150 | -107.53477 | 38952 ft | 498 kts | 79° |
| 2026-04-21 20:34 | 34.72559 | -107.45241 | 38947 ft | 498 kts | 79° |
| 2026-04-21 20:34 | 34.73962 | -107.37005 | 38944 ft | 497 kts | 79° |
| 2026-04-21 20:35 | 34.75354 | -107.28804 | 38944 ft | 494 kts | 79° |
| 2026-04-21 20:35 | 34.76736 | -107.20619 | 38945 ft | 494 kts | 79° |
| 2026-04-21 20:36 | 34.78112 | -107.12436 | 38941 ft | 494 kts | 79° |
| 2026-04-21 20:36 | 34.79483 | -107.04248 | 38941 ft | 494 kts | 79° |
| 2026-04-21 20:37 | 34.80847 | -106.96073 | 38944 ft | 492 kts | 79° |
| 2026-04-21 20:37 | 34.82202 | -106.87912 | 38950 ft | 492 kts | 80° |
| 2026-04-21 20:38 | 34.83550 | -106.79756 | 39028 ft | 492 kts | 80° |
| 2026-04-21 20:38 | 34.84892 | -106.71599 | 39071 ft | 492 kts | 80° |
| 2026-04-21 20:39 | 34.86229 | -106.63439 | 39093 ft | 492 kts | 80° |
| 2026-04-21 20:39 | 34.87562 | -106.55271 | 39104 ft | 492 kts | 80° |
| 2026-04-21 20:40 | 34.88890 | -106.47094 | 39098 ft | 492 kts | 80° |
| 2026-04-21 20:40 | 34.90211 | -106.38922 | 39077 ft | 492 kts | 80° |
| 2026-04-21 20:41 | 34.91527 | -106.30748 | 39051 ft | 492 kts | 80° |
| 2026-04-21 20:41 | 34.92841 | -106.22549 | 39019 ft | 493 kts | 80° |
| 2026-04-21 20:42 | 34.94141 | -106.14400 | 39007 ft | 493 kts | 80° |
| 2026-04-21 20:42 | 34.95452 | -106.06142 | 39005 ft | 493 kts | 80° |
| 2026-04-21 20:43 | 34.96741 | -105.97992 | 38998 ft | 493 kts | 80° |
| 2026-04-21 20:43 | 34.98034 | -105.89771 | 39001 ft | 494 kts | 80° |
| 2026-04-21 20:44 | 34.99322 | -105.81550 | 39002 ft | 494 kts | 80° |